Latest Weather Observations for Hobart Airport

IDT60901

Issued at 4:45 am EDT Thursday 27 November 2014 (issued every 10 minutes, with the page automatically refreshed every 10 minutes)

About weather observations | Map of Hobart area stations | Latest observations for Hobart area | Other Formats
Station Details ID: 094008 Name: HOBART AIRPORT Lat: -42.83 Lon: 147.50 Height: 4.0 m
Data from the previous 72 hours. | See also: Recent months at Hobart Airport
Date/Time
EDT
Tmp

°C
App
Tmp
°C
Dew
Point
°C
Rel
Hum
%
Delta-T

°C
Wind Press
QNH
hPa
Press
MSL
hPa
Rain
since
9 am
mm
Dir
 
Spd
km/h
Gust
km/h
Spd
kts
Gust
kts
27/04:30am 11.2 5.6 0.1 46 4.5 W 19 24 10 13 1021.3 1021.3 0.0
27/04:00am 11.3 4.4 0.3 46 4.5 WSW 26 35 14 19 1021.0 1021.0 0.0
27/03:30am 10.9 6.2 1.0 50 4.1 WSW 15 24 8 13 1020.9 1020.9 0.0
27/03:00am 10.8 5.1 0.8 50 4.1 WSW 20 28 11 15 1020.9 1020.9 0.0
27/02:30am 11.5 5.1 0.9 48 4.4 SW 24 33 13 18 1021.2 1021.2 0.0
27/02:00am 11.7 5.9 0.2 45 4.7 WSW 20 35 11 19 1021.1 1021.1 0.0
27/01:30am 11.5 6.8 0.9 48 4.4 W 15 24 8 13 1021.1 1021.1 0.0
27/01:00am 11.2 6.5 0.8 48 4.3 WSW 15 19 8 10 1021.1 1021.1 0.0
27/12:30am 11.2 7.3 1.4 51 4.1 W 11 26 6 14 1021.2 1021.2 0.0
27/12:00am 11.6 8.0 0.7 47 4.5 W 9 15 5 8 1021.1 1021.1 0.0
 
Date/Time
EDT
Tmp

°C
App
Tmp
°C
Dew
Point
°C
Rel
Hum
%
Delta-T

°C
Wind Press
QNH
hPa
Press
MSL
hPa
Rain
since
9 am
mm
Dir
 
Spd
km/h
Gust
km/h
Spd
kts
Gust
kts
26/11:30pm 11.1 6.4 1.0 50 4.2 W 15 19 8 10 1021.0 1021.0 0.0
26/11:00pm 11.6 5.5 0.7 47 4.5 WSW 22 30 12 16 1020.9 1020.9 0.0
26/10:30pm 11.7 5.9 0.2 45 4.7 W 20 28 11 15 1020.8 1020.8 0.0
26/10:00pm 11.4 6.3 0.8 48 4.4 W 17 22 9 12 1020.8 1020.8 0.0
26/09:30pm 11.4 7.1 1.1 49 4.3 W 13 17 7 9 1020.3 1020.3 0.0
26/09:00pm 12.0 6.0 1.3 48 4.5 SW 22 32 12 17 1019.9 1019.9 0.0
26/08:30pm 12.6 7.1 1.6 47 4.7 SW 20 30 11 16 1019.7 1019.7 0.0
26/08:00pm 13.2 7.4 2.5 48 4.7 SW 22 30 12 16 1019.0 1019.0 0.0
26/07:30pm 13.7 7.5 2.0 45 5.1 SW 24 33 13 18 1018.6 1018.6 0.0
26/07:00pm 14.4 8.0 0.8 39 5.8 WSW 24 37 13 20 1018.1 1018.1 0.0
26/06:30pm 14.7 8.5 2.2 43 5.5 SW 24 39 13 21 1017.7 1017.7 0.0
26/05:30pm 15.7 8.4 2.2 40 6.0 WSW 30 39 16 21 1017.0 1017.0 0.0
26/05:00pm 15.8 10.1 3.0 42 5.8 SW 22 39 12 21 1016.7 1016.7 0.0
26/04:30pm 15.7 10.1 3.2 43 5.7 SW 22 30 12 16 1016.6 1016.6 0.0
26/04:00pm 15.7 9.3 3.2 43 5.7 SW 26 37 14 20 1016.2 1016.2 0.0
26/03:30pm 14.6 7.9 5.8 55 4.2 SSW 30 41 16 22 1016.2 1016.2 0.0
26/03:00pm 16.0 9.9 2.7 41 6.0 WSW 24 41 13 22 1016.0 1016.0 0.0
26/02:30pm 15.4 8.4 3.9 46 5.3 SW 30 39 16 21 1016.0 1016.0 0.0
26/02:00pm 15.6 9.3 5.5 51 4.8 S 28 35 15 19 1015.6 1015.6 0.0
26/01:30pm 15.7 10.8 5.2 49 5.0 SW 20 32 11 17 1015.6 1015.6 0.0
26/01:00pm 15.8 10.3 2.1 39 6.1 SW 20 32 11 17 1015.3 1015.3 0.0
26/12:37pm 16.5 8.6 2.2 38 6.4 WSW 33 52 18 28 1015.2 1015.2 0.0
26/12:30pm 16.5 9.9 2.2 38 6.4 SW 26 44 14 24 1015.3 1015.3 0.0
26/12:00pm 14.3 8.2 4.9 53 4.4 SW 26 33 14 18 1015.1 1015.1 0.0
26/11:30am 13.6 6.9 3.6 51 4.5 SW 28 41 15 22 1014.7 1014.7 0.0
26/11:00am 14.6 6.9 2.1 43 5.5 SW 32 56 17 30 1014.7 1014.7 0.0
26/10:49am 14.8 7.8 2.1 42 5.6 SW 28 48 15 26 1014.6 1014.6 0.0
26/10:30am 13.8 7.8 3.1 48 4.8 SW 24 35 13 19 1014.3 1014.3 0.0
26/10:00am 14.9 9.0 1.6 40 5.8 WSW 22 33 12 18 1013.7 1013.7 0.0
26/09:30am 14.0 8.4 0.9 41 5.6 WNW 20 28 11 15 1013.3 1013.3 0.0
26/09:00am 13.6 7.8 2.2 46 5.0 NW 22 32 12 17 1012.9 1012.9 0.2
26/08:30am 13.5 8.0 2.0 45 5.0 NW 20 39 11 21 1012.6 1012.6 0.2
26/08:00am 13.4 8.0 2.2 46 4.9 NW 20 30 11 16 1012.2 1012.2 0.2
26/07:30am 12.7 7.1 1.2 45 4.9 WNW 20 32 11 17 1012.0 1012.0 0.2
26/07:00am 12.4 7.7 1.0 45 4.8 NW 15 24 8 13 1011.4 1011.4 0.2
26/06:30am 13.0 8.0 1.3 45 5.0 NW 17 22 9 12 1011.0 1011.0 0.2
26/06:00am 12.7 4.7 0.2 42 5.2 W 32 39 17 21 1010.4 1010.4 0.2
26/05:36am 12.5 5.1 1.8 48 4.6 WSW 30 48 16 26 1009.8 1009.8 0.2
26/05:30am 11.6 7.6 5.1 64 3.0 SSE 15 33 8 18 1010.0 1010.0 0.2
26/05:00am 11.0 8.0 7.5 79 1.7 S 13 17 7 9 1009.3 1009.3 0.2
26/04:30am 10.3 8.6 8.3 87 1.0 ENE 7 11 4 6 1008.9 1008.9 0.2
26/04:00am 11.6 11.0 9.0 84 1.3 SSW 2 7 1 4 1009.1 1009.1 0.2
26/03:30am 12.2 9.0 7.0 70 2.5 S 13 19 7 10 1008.7 1008.7 0.2
26/03:00am 12.5 8.7 5.9 64 3.1 WNW 15 19 8 10 1008.4 1008.4 0.2
26/02:30am 12.3 7.4 6.7 68 2.7 WNW 22 32 12 17 1008.7 1008.7 0.2
26/02:00am 13.0 6.3 5.5 60 3.5 NW 30 37 16 20 1008.5 1008.5 0.2
26/01:30am 13.0 7.9 5.8 61 3.4 NNW 22 33 12 18 1008.7 1008.7 0.2
26/01:00am 12.9 8.0 4.9 58 3.7 NNW 20 32 11 17 1009.1 1009.1 0.2
26/12:30am 12.8 8.8 4.8 58 3.7 NNW 15 22 8 12 1009.7 1009.7 0.2
26/12:00am 12.7 7.9 4.6 58 3.7 NNW 19 26 10 14 1010.3 1010.3 0.2
 
Date/Time
EDT
Tmp

°C
App
Tmp
°C
Dew
Point
°C
Rel
Hum
%
Delta-T

°C
Wind Press
QNH
hPa
Press
MSL
hPa
Rain
since
9 am
mm
Dir
 
Spd
km/h
Gust
km/h
Spd
kts
Gust
kts
25/11:30pm 12.6 8.2 4.5 58 3.7 NNW 17 24 9 13 1010.8 1010.8 0.2
25/11:00pm 12.6 8.1 4.0 56 3.9 NNW 17 26 9 14 1011.0 1011.0 0.2
25/10:30pm 12.7 8.1 3.5 53 4.1 N 17 28 9 15 1011.3 1011.3 0.2
25/10:00pm 13.0 8.6 2.8 50 4.5 NNW 15 24 8 13 1011.4 1011.4 0.2
25/09:30pm 13.1 7.6 2.1 47 4.8 NW 20 33 11 18 1011.4 1011.4 0.2
25/09:00pm 13.1 7.6 0.8 43 5.2 NNW 19 26 10 14 1011.3 1011.3 0.2
25/08:30pm 13.5 6.9 -0.6 38 5.8 NW 24 37 13 20 1011.0 1011.0 0.2
25/08:00pm 13.7 7.9 0.1 39 5.7 NW 20 39 11 21 1010.7 1010.7 0.2
25/07:30pm 14.0 5.8 -0.8 36 6.1 W 32 44 17 24 1010.8 1010.8 0.2
25/07:00pm 14.2 6.0 0.6 39 5.8 WNW 33 52 18 28 1010.3 1010.3 0.2
25/06:37pm 14.3 6.6 2.3 44 5.3 WNW 32 57 17 31 1010.3 1010.3 0.2
25/06:30pm 14.5 6.7 1.7 42 5.6 WNW 32 39 17 21 1010.0 1010.0 0.2
25/06:00pm 14.7 6.9 1.4 40 5.8 WNW 32 37 17 20 1009.4 1009.4 0.2
25/05:30pm 15.2 6.5 -0.2 35 6.5 WNW 35 59 19 32 1009.4 1009.4 0.2
25/05:07pm 15.4 7.0 1.5 39 6.1 W 35 57 19 31 1009.2 1009.2 0.2
25/05:00pm 15.6 6.4 1.2 37 6.3 WNW 39 54 21 29 1009.2 1009.2 0.2
25/04:30pm 15.8 4.9 1.2 37 6.4 W 48 72 26 39 1008.7 1008.7 0.2
25/04:26pm 15.7 4.2 2.3 40 6.0 WNW 52 67 28 36 1008.6 1008.6 0.2
25/04:00pm 16.7 9.8 2.3 38 6.5 WNW 28 48 15 26 1008.0 1008.0 0.2
25/03:57pm 16.6 9.3 2.2 38 6.5 WNW 30 48 16 26 1008.0 1008.0 0.2
25/03:30pm 17.8 10.5 4.3 40 6.4 W 32 48 17 26 1008.1 1008.1 0.2
25/03:08pm 16.4 9.7 3.7 42 5.9 W 28 59 15 32 1007.9 1007.9 0.2
25/03:00pm 16.6 10.3 3.7 42 6.0 W 26 41 14 22 1007.8 1007.8 0.2
25/02:43pm 16.6 9.9 3.7 42 6.0 WNW 28 50 15 27 1007.7 1007.7 0.2
25/02:30pm 16.4 10.3 2.8 40 6.2 WNW 24 35 13 19 1007.6 1007.6 0.2
25/02:00pm 16.6 8.9 3.4 41 6.1 NW 33 48 18 26 1007.2 1007.2 0.2
25/01:44pm 16.8 9.2 2.8 39 6.4 WNW 32 52 17 28 1006.9 1006.9 0.2
25/01:30pm 18.4 10.3 3.2 36 7.1 WNW 35 52 19 28 1006.8 1006.8 0.2
25/01:02pm 17.9 9.9 0.7 31 7.6 WNW 32 50 17 27 1006.4 1006.4 0.2
25/01:00pm 18.5 10.5 1.8 32 7.6 WNW 33 50 18 27 1006.5 1006.5 0.2
25/12:33pm 18.2 9.9 1.9 33 7.4 W 35 54 19 29 1006.6 1006.6 0.2
25/12:30pm 18.2 9.0 1.2 32 7.6 W 39 54 21 29 1006.6 1006.6 0.2
25/12:10pm 16.2 9.1 1.2 36 6.6 W 28 46 15 25 1006.6 1006.6 0.0
25/12:00pm 15.8 11.7 2.2 40 6.1 SSW 13 20 7 11 1006.7 1006.7 0.0
25/11:30am 15.4 9.5 1.5 39 6.1 SW 22 37 12 20 1006.6 1006.6 0.0
25/11:00am 17.4 10.8 1.9 35 7.0 WNW 26 52 14 28 1006.3 1006.3 0.0
25/10:30am 16.9 9.1 1.4 35 6.9 WNW 32 41 17 22 1005.9 1005.9 0.0
25/10:00am 15.6 7.6 1.5 38 6.2 WNW 33 48 18 26 1005.6 1005.6 0.0
25/09:43am 16.1 8.9 0.4 34 6.8 W 28 56 15 30 1005.3 1005.3 0.0
25/09:30am 15.8 9.1 1.2 37 6.4 W 26 35 14 19 1005.4 1005.4 0.0
25/09:00am 16.0 8.4 2.8 41 6.0 NW 32 44 17 24 1004.9 1004.9 1.6
25/08:30am 14.9 8.0 2.7 44 5.5 NW 28 37 15 20 1004.7 1004.7 1.6
25/08:00am 13.2 8.3 2.3 47 4.8 W 17 30 9 16 1004.2 1004.2 1.6
25/07:30am 12.8 6.7 2.9 51 4.4 WNW 24 35 13 19 1003.5 1003.4 1.6
25/07:00am 12.5 5.8 3.6 54 4.0 WNW 28 43 15 23 1002.9 1002.8 1.6
25/06:30am 12.4 5.3 3.5 54 4.0 WNW 30 41 16 22 1002.3 1002.2 1.6
25/06:00am 12.3 5.5 3.1 53 4.1 WNW 28 37 15 20 1001.7 1001.6 1.6
25/05:30am 12.1 5.7 3.4 55 3.9 WNW 26 41 14 22 1001.1 1001.0 1.6
25/05:16am 12.0 4.3 3.5 56 3.8 WNW 33 52 18 28 1000.9 1000.8 1.6
25/05:00am 11.9 4.4 3.6 57 3.7 WNW 32 41 17 22 1000.5 1000.4 1.6
25/04:30am 11.9 3.1 3.7 57 3.7 WNW 39 59 21 32 1000.0 999.9 1.6
25/04:00am 11.7 4.6 3.7 58 3.6 NW 30 39 16 21 1000.7 1000.6 1.6
25/03:30am 12.0 4.9 3.8 57 3.7 NW 30 39 16 21 1000.9 1000.8 1.6
25/03:00am 11.4 7.3 4.6 63 3.1 N 15 20 8 11 1001.6 1001.5 1.6
25/02:30am 11.2 7.5 4.3 62 3.1 N 13 22 7 12 1001.8 1001.7 1.6
25/02:00am 10.9 5.8 4.0 62 3.1 N 20 30 11 16 1001.3 1001.2 1.6
25/01:30am 10.7 6.1 3.7 62 3.1 N 17 30 9 16 1001.6 1001.5 1.6
25/01:00am 10.9 5.8 4.0 62 3.1 NNW 20 30 11 16 1001.8 1001.7 1.6
25/12:30am 11.8 5.5 3.8 58 3.6 NW 26 37 14 20 1002.3 1002.2 1.6
25/12:00am 11.6 5.0 4.3 61 3.3 NW 28 37 15 20 1002.3 1002.2 1.6
 
Date/Time
EDT
Tmp

°C
App
Tmp
°C
Dew
Point
°C
Rel
Hum
%
Delta-T

°C
Wind Press
QNH
hPa
Press
MSL
hPa
Rain
since
9 am
mm
Dir
 
Spd
km/h
Gust
km/h
Spd
kts
Gust
kts
24/11:30pm 11.7 7.2 4.4 61 3.3 NNW 17 26 9 14 1002.7 1002.6 1.6
24/11:00pm 11.9 6.8 4.2 59 3.5 NW 20 30 11 16 1002.9 1002.8 1.6
24/10:30pm 12.3 7.1 3.6 55 3.9 NW 20 28 11 15 1003.2 1003.1 1.6
24/10:00pm 13.0 7.6 2.3 48 4.7 WNW 20 32 11 17 1003.1 1003.0 1.6
24/09:30pm 13.4 5.8 3.1 49 4.6 WNW 32 43 17 23 1002.8 1002.7 1.6
24/09:06pm 13.8 6.9 2.8 47 4.9 WNW 28 50 15 27 1002.4 1002.3 1.6
24/09:00pm 13.8 7.0 3.1 48 4.8 WNW 28 37 15 20 1002.4 1002.3 1.6
24/08:30pm 14.4 9.8 6.3 58 3.9 W 20 33 11 18 1002.2 1002.1 1.6
24/08:00pm 14.6 11.5 8.7 67 3.0 WNW 15 22 8 12 1002.0 1001.9 1.6
24/07:30pm 14.5 12.0 10.9 79 1.9 WNW 15 20 8 11 1001.7 1001.6 1.6
24/07:00pm 14.3 13.5 12.9 91 0.8 NW 9 13 5 7 1001.7 1001.6 1.6
24/06:30pm 14.3 13.5 13.0 92 0.7 N 9 9 5 5 1001.6 1001.5 1.6
24/06:00pm 14.3 13.5 12.9 91 0.8 NNE 9 13 5 7 1001.8 1001.7 1.6
24/05:30pm 14.3 13.9 12.5 89 1.0 NE 6 9 3 5 1002.1 1002.0 1.4
24/05:00pm 14.3 15.0 12.1 87 1.2 CALM 0 0 0 0 1002.5 1002.4 1.4
24/04:30pm 14.5 13.1 12.3 87 1.2 SSW 11 15 6 8 1002.9 1002.8 1.2
24/04:00pm 15.3 13.7 11.6 78 2.0 SE 11 13 6 7 1003.0 1002.9 0.8
24/03:30pm 16.0 15.4 11.6 75 2.4 SE 6 9 3 5 1003.3 1003.2 0.8
24/03:00pm 16.2 15.0 10.4 68 3.1 NW 7 9 4 5 1003.4 1003.3 0.8
24/02:30pm 15.9 15.0 10.6 71 2.8 N 6 9 3 5 1004.2 1004.2 0.8
24/02:00pm 15.8 14.8 10.9 72 2.6 N 7 9 4 5 1005.0 1005.0 0.8
24/01:30pm 15.3 13.9 10.8 74 2.4 ENE 9 11 5 6 1005.5 1005.5 0.8
24/01:00pm 14.7 13.2 10.5 76 2.2 NNW 9 15 5 8 1005.9 1005.9 0.8
24/12:30pm 14.5 13.5 10.9 79 1.9 NW 7 9 4 5 1006.3 1006.3 0.8
24/12:00pm 13.9 12.4 10.5 80 1.8 NW 9 11 5 6 1006.8 1006.8 0.8
24/11:30am 13.6 12.3 10.1 79 1.8 N 7 13 4 7 1007.3 1007.3 0.8
24/11:00am 13.4 11.2 9.3 76 2.1 NNW 11 17 6 9 1008.2 1008.2 0.8
24/10:30am 14.0 11.2 8.7 70 2.7 NNW 13 19 7 10 1008.5 1008.5 0.0
24/10:00am 14.4 11.5 8.2 66 3.1 NW 13 15 7 8 1008.3 1008.3 0.0
24/09:30am 14.2 10.3 7.0 62 3.5 NW 17 26 9 14 1009.0 1009.0 0.0
24/09:00am 14.3 10.9 5.9 57 4.0 N 13 20 7 11 1008.1 1008.1 0.2
24/08:30am 13.6 9.9 6.3 61 3.5 NNW 15 20 8 11 1009.0 1009.0 0.2
24/08:00am 13.2 10.6 6.0 61 3.4 N 9 11 5 6 1009.0 1009.0 0.2
24/07:30am 12.1 9.7 7.1 71 2.4 NW 9 15 5 8 1008.9 1008.9 0.2
24/07:00am 11.4 8.5 6.3 71 2.4 WNW 11 17 6 9 1008.9 1008.9 0.2
24/06:30am 11.1 7.0 6.2 72 2.3 NW 17 19 9 10 1009.0 1009.0 0.2
24/06:00am 10.9 6.9 6.7 75 2.0 NW 17 20 9 11 1008.8 1008.8 0.2
24/05:30am 9.9 5.8 6.2 78 1.7 NW 17 20 9 11 1009.2 1009.2 0.2
24/05:00am 10.4 7.5 6.6 77 1.8 NNW 11 17 6 9 1009.5 1009.5 0.2

Latest Capital City Observations: Canberra | Sydney | Melbourne | Brisbane | Adelaide | Perth | Hobart | Darwin

Other Formats:

Comma delimited format used in spreadsheet applications
http://www.bom.gov.au/fwo/IDT60901/IDT60901.94975.axf

JavaScript Object Notation format (JSON) in row-major order
http://www.bom.gov.au/fwo/IDT60901/IDT60901.94975.json